Time;durP1;ratioP1;P1;durP2;ratioP2;P2;SDS_P1;SDS_P2;PMS_P1;PMS_P2;Temp;Humidity;BMP_temperature;BMP_pressure;BME280_temperature;BME280_humidity;BME280_pressure;Samples;Min_cycle;Max_cycle;Signal;HPM_P1;HPM_P2
2022/01/20 00:02:08;;;;;;;194.40;84.30;;;;;;;;;;5068601;27;20758;-40
2022/01/20 00:09:53;;;;;;;187.77;80.40;;;;;;;;;;5054953;28;20464;-38
2022/01/20 00:29:00;;;;;;;178.17;78.23;;;;;;;;;;5047298;28;20826;-41
2022/01/20 00:33:53;;;;;;;180.30;80.00;;;;;;;;;;5061311;28;20543;-39
2022/01/20 00:39:01;;;;;;;163.53;70.90;;;;;;;;;;5057133;28;20472;-42
2022/01/20 00:41:28;;;;;;;158.63;72.13;;;;;;;;;;5088589;27;20427;-38
2022/01/20 00:43:54;;;;;;;157.23;72.63;;;;;;;;;;5056695;28;20460;-40
2022/01/20 00:46:20;;;;;;;158.73;70.53;;;;;;;;;;5074727;28;20425;-40
2022/01/20 00:48:46;;;;;;;142.13;66.23;;;;;;;;;;5060508;28;20432;-36
2022/01/20 00:51:13;;;;;;;165.67;73.47;;;;;;;;;;5057294;28;20545;-40
2022/01/20 00:53:43;;;;;;;147.63;65.47;;;;;;;;;;5067469;28;20426;-38
2022/01/20 00:56:11;;;;;;;142.93;65.27;;;;;;;;;;5043342;28;20836;-40
2022/01/20 00:58:37;;;;;;;141.47;66.30;;;;;;;;;;5043221;28;20427;-40
2022/01/20 01:01:03;;;;;;;145.40;67.57;;;;;;;;;;5042309;28;20441;-39
2022/01/20 01:03:29;;;;;;;142.27;64.33;;;;;;;;;;5057435;28;20462;-41
2022/01/20 01:06:47;;;;;;;146.20;65.83;;;;;;;;;;5048467;28;20409;-37
2022/01/20 01:08:44;;;;;;;143.30;64.27;;;;;;;;;;5042166;28;20422;-37
2022/01/20 01:11:10;;;;;;;131.37;61.87;;;;;;;;;;5059581;28;20426;-36
2022/01/20 01:13:37;;;;;;;147.50;67.13;;;;;;;;;;5047692;28;20844;-36
2022/01/20 01:16:05;;;;;;;160.17;72.30;;;;;;;;;;5057975;28;20491;-40
2022/01/20 01:21:29;;;;;;;150.37;69.47;;;;;;;;;;5040998;28;20459;-39
2022/01/20 01:23:55;;;;;;;150.37;68.27;;;;;;;;;;5050481;28;20452;-40
2022/01/20 01:26:25;;;;;;;149.37;67.30;;;;;;;;;;5048117;28;20432;-38
2022/01/20 01:28:51;;;;;;;143.13;66.47;;;;;;;;;;5040666;28;20430;-40
2022/01/20 01:31:34;;;;;;;135.67;63.83;;;;;;;;;;5054226;28;20475;-38
2022/01/20 01:34:21;;;;;;;135.07;61.50;;;;;;;;;;5056551;28;21116;-38
2022/01/20 01:37:14;;;;;;;137.43;62.00;;;;;;;;;;5048183;28;20481;-37
2022/01/20 01:39:36;;;;;;;127.13;59.60;;;;;;;;;;5033651;28;20436;-39
2022/01/20 01:42:03;;;;;;;130.33;61.63;;;;;;;;;;5053121;28;20526;-37
2022/01/20 01:44:30;;;;;;;128.27;60.33;;;;;;;;;;5058904;28;20472;-38
2022/01/20 01:46:58;;;;;;;129.70;59.07;;;;;;;;;;5051763;28;20607;-36
2022/01/20 01:49:25;;;;;;;126.27;58.80;;;;;;;;;;5045532;28;20426;-38
2022/01/20 01:51:51;;;;;;;135.27;61.57;;;;;;;;;;5048515;28;20752;-42
2022/01/20 01:54:18;;;;;;;117.73;56.43;;;;;;;;;;5055114;28;21597;-40
2022/01/20 01:56:45;;;;;;;127.13;57.50;;;;;;;;;;5051303;28;20423;-39
2022/01/20 01:59:11;;;;;;;122.87;58.40;;;;;;;;;;5035274;28;20434;-36
2022/01/20 02:01:38;;;;;;;129.97;60.53;;;;;;;;;;5051895;28;20426;-38
2022/01/20 02:04:20;;;;;;;120.77;57.83;;;;;;;;;;5053622;28;21327;-40
2022/01/20 02:07:30;;;;;;;165.77;70.97;;;;;;;;;;5052777;28;21303;-35
2022/01/20 02:20:37;;;;;;;130.47;59.53;;;;;;;;;;5037718;28;21234;-40
2022/01/20 02:23:03;;;;;;;115.97;55.17;;;;;;;;;;5049644;28;20507;-35
2022/01/20 02:25:30;;;;;;;115.63;56.13;;;;;;;;;;5041938;28;20422;-39
2022/01/20 02:27:57;;;;;;;108.47;53.93;;;;;;;;;;5055940;28;20410;-37
2022/01/20 02:30:25;;;;;;;118.60;56.43;;;;;;;;;;5040250;28;20513;-36
2022/01/20 02:32:55;;;;;;;103.37;51.73;;;;;;;;;;5037820;28;20996;-36
2022/01/20 02:35:22;;;;;;;116.77;56.17;;;;;;;;;;5074910;27;20757;-37
2022/01/20 02:37:52;;;;;;;103.33;50.37;;;;;;;;;;5054418;28;20985;-36
2022/01/20 02:45:48;;;;;;;103.53;51.70;;;;;;;;;;5045247;28;20432;-39
2022/01/20 02:48:14;;;;;;;114.73;54.83;;;;;;;;;;5035039;28;20418;-35
2022/01/20 02:50:40;;;;;;;112.40;54.30;;;;;;;;;;5042189;28;20914;-37
2022/01/20 02:53:07;;;;;;;110.27;54.73;;;;;;;;;;5039188;28;20716;-39
2022/01/20 02:55:33;;;;;;;103.57;52.93;;;;;;;;;;5041649;28;20436;-36
2022/01/20 02:57:59;;;;;;;105.37;53.33;;;;;;;;;;5051873;28;20861;-38
2022/01/20 03:00:26;;;;;;;113.87;53.97;;;;;;;;;;5039533;28;20496;-35
2022/01/20 03:02:52;;;;;;;100.27;50.40;;;;;;;;;;5037123;28;20481;-41
2022/01/20 03:05:18;;;;;;;104.10;50.97;;;;;;;;;;5039544;28;20887;-39
2022/01/20 03:07:46;;;;;;;99.77;50.27;;;;;;;;;;5050068;28;20426;-36
2022/01/20 03:10:12;;;;;;;91.97;47.80;;;;;;;;;;5068142;27;20547;-38
2022/01/20 03:12:38;;;;;;;97.77;49.30;;;;;;;;;;5037477;28;20430;-36
2022/01/20 03:15:04;;;;;;;93.07;48.33;;;;;;;;;;5056189;28;20472;-40
2022/01/20 03:17:32;;;;;;;101.20;49.17;;;;;;;;;;5050192;28;20532;-38
2022/01/20 03:19:58;;;;;;;96.87;49.93;;;;;;;;;;5047826;28;20535;-37
2022/01/20 03:22:24;;;;;;;95.97;48.53;;;;;;;;;;5037714;28;20566;-40
2022/01/20 03:24:51;;;;;;;102.57;51.57;;;;;;;;;;5037398;28;20618;-36
2022/01/20 03:27:17;;;;;;;109.33;54.37;;;;;;;;;;5044848;28;20410;-37
2022/01/20 03:29:43;;;;;;;106.60;52.23;;;;;;;;;;5052530;28;20657;-39
2022/01/20 03:32:09;;;;;;;108.07;53.57;;;;;;;;;;5036225;28;21111;-35
2022/01/20 03:34:35;;;;;;;112.43;54.27;;;;;;;;;;5051643;28;20425;-38
2022/01/20 03:37:03;;;;;;;110.67;53.03;;;;;;;;;;5040161;28;20433;-41
2022/01/20 03:39:30;;;;;;;104.77;53.00;;;;;;;;;;5050960;28;20450;-37
2022/01/20 03:41:56;;;;;;;110.93;52.33;;;;;;;;;;5046621;28;20445;-39
2022/01/20 03:44:22;;;;;;;112.53;53.67;;;;;;;;;;5051548;28;20418;-39
2022/01/20 03:46:49;;;;;;;98.30;51.23;;;;;;;;;;5052292;28;21227;-38
2022/01/20 03:49:27;;;;;;;98.03;49.73;;;;;;;;;;5046245;28;20433;-38
2022/01/20 03:51:57;;;;;;;104.40;51.07;;;;;;;;;;5064057;28;21325;-40
2022/01/20 03:54:23;;;;;;;108.20;52.60;;;;;;;;;;5036789;28;20546;-39
2022/01/20 03:56:49;;;;;;;111.47;53.30;;;;;;;;;;5055111;28;21323;-38
2022/01/20 03:59:15;;;;;;;107.30;52.23;;;;;;;;;;5052767;28;20433;-38
2022/01/20 04:01:41;;;;;;;103.33;51.30;;;;;;;;;;5048630;28;20452;-37
2022/01/20 04:04:08;;;;;;;111.67;54.13;;;;;;;;;;5047232;28;20418;-37
2022/01/20 04:06:34;;;;;;;124.70;55.97;;;;;;;;;;5063236;28;20420;-38
2022/01/20 04:09:00;;;;;;;127.53;58.77;;;;;;;;;;5055826;28;20421;-38
2022/01/20 04:11:27;;;;;;;125.53;60.03;;;;;;;;;;5050175;28;20418;-37
2022/01/20 04:13:54;;;;;;;125.60;59.53;;;;;;;;;;5067233;28;21012;-39
2022/01/20 04:16:30;;;;;;;99.80;51.83;;;;;;;;;;5041017;28;20426;-38
2022/01/20 04:18:56;;;;;;;108.53;53.10;;;;;;;;;;5037080;28;20486;-40
2022/01/20 04:21:30;;;;;;;108.10;53.80;;;;;;;;;;5038610;28;20432;-38
2022/01/20 04:23:59;;;;;;;118.37;55.47;;;;;;;;;;5040666;28;20441;-38
2022/01/20 04:26:25;;;;;;;113.03;55.20;;;;;;;;;;5051114;28;21302;-40
2022/01/20 04:28:56;;;;;;;113.00;55.07;;;;;;;;;;5050847;28;20420;-38
2022/01/20 04:31:23;;;;;;;113.37;55.47;;;;;;;;;;5038235;28;20513;-39
2022/01/20 04:33:49;;;;;;;117.83;56.87;;;;;;;;;;5059341;28;20429;-37
2022/01/20 04:36:15;;;;;;;119.90;58.13;;;;;;;;;;5056062;28;20425;-42
2022/01/20 04:38:42;;;;;;;119.47;56.30;;;;;;;;;;5049819;28;21246;-41
2022/01/20 04:41:08;;;;;;;108.17;53.13;;;;;;;;;;5049978;28;20430;-41
2022/01/20 04:43:34;;;;;;;129.27;59.37;;;;;;;;;;5046724;28;20556;-42
2022/01/20 04:46:15;;;;;;;128.03;58.20;;;;;;;;;;5056690;28;20773;-40
2022/01/20 04:59:24;;;;;;;117.53;56.57;;;;;;;;;;5046129;28;21086;-45
2022/01/20 05:01:51;;;;;;;110.17;55.27;;;;;;;;;;5055480;28;20441;-43
2022/01/20 05:04:17;;;;;;;102.40;52.27;;;;;;;;;;5058122;28;20422;-45
2022/01/20 05:06:45;;;;;;;100.20;51.80;;;;;;;;;;5058622;28;20421;-45
2022/01/20 05:09:17;;;;;;;99.37;52.13;;;;;;;;;;5054852;28;20430;-44
2022/01/20 05:11:48;;;;;;;102.43;53.30;;;;;;;;;;5056033;28;20414;-45
2022/01/20 05:14:14;;;;;;;107.40;52.47;;;;;;;;;;5040828;28;21237;-43
2022/01/20 05:16:40;;;;;;;106.00;52.07;;;;;;;;;;5080695;28;20422;-46
2022/01/20 05:19:07;;;;;;;101.27;50.57;;;;;;;;;;5088980;28;21039;-45
2022/01/20 05:21:33;;;;;;;117.73;56.17;;;;;;;;;;5055843;28;20421;-45
2022/01/20 05:23:59;;;;;;;100.70;50.43;;;;;;;;;;5075480;27;20458;-44
2022/01/20 05:26:25;;;;;;;130.43;59.60;;;;;;;;;;5047683;28;20425;-46
2022/01/20 05:28:51;;;;;;;135.27;63.70;;;;;;;;;;5056584;28;20541;-45
2022/01/20 05:31:17;;;;;;;110.00;55.80;;;;;;;;;;5056705;28;20421;-44
2022/01/20 05:33:43;;;;;;;109.67;55.40;;;;;;;;;;5045606;28;20470;-45
2022/01/20 05:36:10;;;;;;;109.33;52.70;;;;;;;;;;5055979;28;21037;-46
2022/01/20 05:38:36;;;;;;;113.43;56.80;;;;;;;;;;5041503;28;20430;-45
2022/01/20 05:41:02;;;;;;;114.10;55.53;;;;;;;;;;5076653;27;20426;-46
2022/01/20 05:43:28;;;;;;;117.50;56.27;;;;;;;;;;5059948;28;20813;-46
2022/01/20 05:45:54;;;;;;;107.20;54.27;;;;;;;;;;5042453;28;20496;-46
2022/01/20 05:48:33;;;;;;;123.90;59.13;;;;;;;;;;5053638;28;20455;-45
2022/01/20 05:50:59;;;;;;;99.27;51.77;;;;;;;;;;5044413;28;20909;-45
2022/01/20 05:53:25;;;;;;;114.67;55.60;;;;;;;;;;5055229;28;20429;-45
2022/01/20 05:55:52;;;;;;;133.70;61.43;;;;;;;;;;5046604;28;20535;-45
2022/01/20 05:58:19;;;;;;;113.03;56.53;;;;;;;;;;5057031;28;20502;-46
2022/01/20 06:00:46;;;;;;;112.13;58.23;;;;;;;;;;5056026;28;20510;-45
2022/01/20 06:05:57;;;;;;;126.03;58.73;;;;;;;;;;5042686;28;20532;-45
2022/01/20 06:08:24;;;;;;;114.07;56.33;;;;;;;;;;5042209;28;20424;-45
2022/01/20 06:10:50;;;;;;;116.43;57.23;;;;;;;;;;5056470;28;20414;-44
2022/01/20 06:13:16;;;;;;;112.97;56.37;;;;;;;;;;5057712;28;20424;-45
2022/01/20 06:15:43;;;;;;;117.50;57.23;;;;;;;;;;5060108;28;20422;-45
2022/01/20 06:18:09;;;;;;;130.03;61.87;;;;;;;;;;5053845;28;20485;-43
2022/01/20 06:20:36;;;;;;;121.70;59.67;;;;;;;;;;5038260;28;20466;-45
2022/01/20 06:23:05;;;;;;;108.97;55.73;;;;;;;;;;5055738;28;21373;-44
2022/01/20 06:25:31;;;;;;;141.10;65.37;;;;;;;;;;5071409;28;20430;-44
2022/01/20 06:27:57;;;;;;;141.33;64.53;;;;;;;;;;5038287;28;20423;-45
2022/01/20 06:30:24;;;;;;;140.00;65.03;;;;;;;;;;5041139;28;20439;-45
2022/01/20 06:32:51;;;;;;;154.03;70.57;;;;;;;;;;5053236;28;20512;-43
2022/01/20 06:35:17;;;;;;;140.83;64.07;;;;;;;;;;5041667;28;20466;-45
2022/01/20 06:37:43;;;;;;;151.13;67.40;;;;;;;;;;5055114;28;20425;-45
2022/01/20 06:40:10;;;;;;;160.80;71.33;;;;;;;;;;5041280;28;20426;-44
2022/01/20 06:42:36;;;;;;;165.20;71.47;;;;;;;;;;5054719;28;20449;-44
2022/01/20 06:45:07;;;;;;;161.90;71.43;;;;;;;;;;5046646;28;20983;-45
2022/01/20 06:47:33;;;;;;;149.37;68.90;;;;;;;;;;5043487;28;21124;-44
2022/01/20 06:50:00;;;;;;;139.77;65.83;;;;;;;;;;5044793;28;20434;-43
2022/01/20 06:52:26;;;;;;;162.00;72.87;;;;;;;;;;5053436;28;21001;-44
2022/01/20 06:54:52;;;;;;;149.13;69.07;;;;;;;;;;5043651;28;20549;-45
2022/01/20 06:57:18;;;;;;;168.00;73.80;;;;;;;;;;5055675;28;20417;-43
2022/01/20 06:59:44;;;;;;;158.93;71.90;;;;;;;;;;5040833;28;20434;-44
2022/01/20 07:02:11;;;;;;;147.73;68.87;;;;;;;;;;5040542;28;20460;-44
2022/01/20 07:04:38;;;;;;;160.60;74.33;;;;;;;;;;5042144;28;20413;-44
2022/01/20 07:07:04;;;;;;;158.00;71.37;;;;;;;;;;5053662;28;20427;-45
2022/01/20 07:09:31;;;;;;;160.17;71.30;;;;;;;;;;5038343;28;20450;-44
2022/01/20 07:11:58;;;;;;;165.33;74.57;;;;;;;;;;5053695;28;20458;-44
2022/01/20 07:14:24;;;;;;;168.83;73.87;;;;;;;;;;5054853;28;20409;-44
2022/01/20 07:16:50;;;;;;;152.07;69.37;;;;;;;;;;5043253;28;20421;-45
2022/01/20 07:19:16;;;;;;;160.03;69.73;;;;;;;;;;5040530;28;20541;-44
2022/01/20 07:21:43;;;;;;;141.07;65.57;;;;;;;;;;5056574;28;20533;-46
2022/01/20 07:24:10;;;;;;;138.37;62.33;;;;;;;;;;5056717;28;20559;-44
2022/01/20 07:26:36;;;;;;;146.30;63.77;;;;;;;;;;5057114;28;20488;-44
2022/01/20 07:29:03;;;;;;;146.17;63.57;;;;;;;;;;5058664;28;20426;-44
2022/01/20 07:31:29;;;;;;;146.43;64.83;;;;;;;;;;5060581;28;20410;-44
2022/01/20 07:33:55;;;;;;;154.67;66.53;;;;;;;;;;5056610;28;20418;-45
2022/01/20 07:36:21;;;;;;;137.30;60.53;;;;;;;;;;5057309;28;20475;-45
2022/01/20 07:38:47;;;;;;;145.60;64.60;;;;;;;;;;5039364;28;20436;-45
2022/01/20 07:41:13;;;;;;;156.50;65.70;;;;;;;;;;5044837;28;20434;-43
2022/01/20 07:43:40;;;;;;;160.37;67.97;;;;;;;;;;5040320;28;21427;-45
2022/01/20 07:46:07;;;;;;;146.33;61.00;;;;;;;;;;5056883;28;20661;-45
2022/01/20 07:48:33;;;;;;;162.57;67.73;;;;;;;;;;5036337;28;20426;-44
2022/01/20 07:51:00;;;;;;;149.40;63.63;;;;;;;;;;5044702;28;20516;-45
2022/01/20 07:53:26;;;;;;;162.67;66.93;;;;;;;;;;5037788;28;20433;-44
2022/01/20 07:55:52;;;;;;;152.30;64.57;;;;;;;;;;5045523;28;20479;-44
2022/01/20 07:58:19;;;;;;;150.13;62.93;;;;;;;;;;5054138;28;21146;-45
2022/01/20 08:00:45;;;;;;;148.97;65.57;;;;;;;;;;5042731;28;20483;-44
2022/01/20 08:03:11;;;;;;;151.87;62.70;;;;;;;;;;5051603;28;20460;-44
2022/01/20 08:05:38;;;;;;;169.67;66.43;;;;;;;;;;5042034;28;21366;-45
2022/01/20 08:08:04;;;;;;;156.83;64.43;;;;;;;;;;5057906;28;20512;-45
2022/01/20 08:10:31;;;;;;;163.63;67.30;;;;;;;;;;5045904;28;20421;-47
2022/01/20 08:12:57;;;;;;;155.87;64.47;;;;;;;;;;5059081;28;21387;-44
2022/01/20 08:15:23;;;;;;;156.33;64.53;;;;;;;;;;5056932;28;20421;-44
2022/01/20 08:17:49;;;;;;;169.77;67.83;;;;;;;;;;5046541;28;20470;-44
2022/01/20 08:20:16;;;;;;;183.90;70.17;;;;;;;;;;5049075;28;20425;-45
2022/01/20 08:22:42;;;;;;;141.43;59.07;;;;;;;;;;5056695;28;20453;-44
2022/01/20 08:25:10;;;;;;;168.00;66.40;;;;;;;;;;5056782;28;20417;-43
2022/01/20 08:27:37;;;;;;;178.27;71.13;;;;;;;;;;5060276;28;21198;-44
2022/01/20 08:30:05;;;;;;;194.07;72.57;;;;;;;;;;5058697;28;20410;-44
2022/01/20 08:32:31;;;;;;;194.77;72.77;;;;;;;;;;5060190;28;20459;-44
2022/01/20 08:34:57;;;;;;;196.17;74.20;;;;;;;;;;5041417;28;20427;-45
2022/01/20 08:37:25;;;;;;;195.53;72.83;;;;;;;;;;5059020;28;20406;-44
2022/01/20 08:39:51;;;;;;;208.67;74.37;;;;;;;;;;5059793;28;20656;-45
2022/01/20 08:42:17;;;;;;;181.90;70.83;;;;;;;;;;5059964;28;20554;-44
2022/01/20 08:44:44;;;;;;;168.73;67.53;;;;;;;;;;5044345;28;20422;-44
2022/01/20 08:47:16;;;;;;;203.97;74.87;;;;;;;;;;5077511;27;20405;-44
2022/01/20 08:49:43;;;;;;;195.37;72.00;;;;;;;;;;5060965;28;20787;-44
2022/01/20 08:52:09;;;;;;;173.77;69.70;;;;;;;;;;5059808;28;21062;-44
2022/01/20 08:54:35;;;;;;;162.30;67.73;;;;;;;;;;5042112;28;20422;-44
2022/01/20 08:57:01;;;;;;;151.23;63.43;;;;;;;;;;5046191;28;20455;-45
2022/01/20 08:59:29;;;;;;;165.60;67.93;;;;;;;;;;5058708;28;20996;-43
2022/01/20 09:01:56;;;;;;;176.93;70.13;;;;;;;;;;5059723;28;20534;-45
2022/01/20 09:04:22;;;;;;;172.17;67.37;;;;;;;;;;5042648;28;20906;-44
2022/01/20 09:06:48;;;;;;;174.83;69.73;;;;;;;;;;5046322;28;20430;-45
2022/01/20 09:09:17;;;;;;;176.97;70.50;;;;;;;;;;5059104;28;20510;-45
2022/01/20 09:12:01;;;;;;;162.43;67.43;;;;;;;;;;5057678;28;20437;-45
2022/01/20 09:17:13;;;;;;;158.43;65.57;;;;;;;;;;5037052;28;20436;-46
2022/01/20 09:19:39;;;;;;;143.13;61.50;;;;;;;;;;5070898;27;20430;-44
2022/01/20 09:22:06;;;;;;;151.47;61.57;;;;;;;;;;5056644;28;20472;-45
2022/01/20 09:24:32;;;;;;;167.57;67.67;;;;;;;;;;5055751;28;21104;-44
2022/01/20 09:26:58;;;;;;;219.73;82.63;;;;;;;;;;5059021;28;20429;-45
2022/01/20 09:29:24;;;;;;;209.87;77.47;;;;;;;;;;5072026;27;20923;-44
2022/01/20 09:31:52;;;;;;;234.30;83.63;;;;;;;;;;5054097;28;20438;-44
2022/01/20 09:34:19;;;;;;;206.10;79.03;;;;;;;;;;5055104;28;20437;-44
2022/01/20 09:36:45;;;;;;;198.67;79.77;;;;;;;;;;5040210;28;20433;-44
2022/01/20 09:39:11;;;;;;;195.63;78.80;;;;;;;;;;5058829;28;21081;-44
2022/01/20 09:41:37;;;;;;;196.20;80.77;;;;;;;;;;5044551;28;20460;-44
2022/01/20 09:44:07;;;;;;;192.77;78.73;;;;;;;;;;5038589;28;20466;-44
2022/01/20 09:46:33;;;;;;;194.00;83.03;;;;;;;;;;5069548;28;20725;-45
2022/01/20 09:49:00;;;;;;;198.63;80.97;;;;;;;;;;5044654;28;20477;-44
2022/01/20 09:51:26;;;;;;;170.27;73.63;;;;;;;;;;5043074;28;20431;-44
2022/01/20 09:53:52;;;;;;;171.43;76.50;;;;;;;;;;5044879;28;21221;-45
2022/01/20 09:56:19;;;;;;;182.07;77.13;;;;;;;;;;5056633;28;20437;-45
2022/01/20 09:58:45;;;;;;;190.30;83.27;;;;;;;;;;5073124;27;20441;-45
2022/01/20 10:01:11;;;;;;;197.83;83.43;;;;;;;;;;5057718;28;20441;-45
2022/01/20 10:03:38;;;;;;;181.50;78.00;;;;;;;;;;5053649;28;20475;-45
2022/01/20 10:06:05;;;;;;;197.83;81.83;;;;;;;;;;5044976;28;20429;-46
2022/01/20 10:08:33;;;;;;;195.97;82.40;;;;;;;;;;5038050;28;20425;-46
2022/01/20 10:11:06;;;;;;;183.83;79.10;;;;;;;;;;5055279;28;20988;-44
2022/01/20 10:13:34;;;;;;;171.77;78.07;;;;;;;;;;5055363;28;20454;-44
2022/01/20 10:16:08;;;;;;;174.13;79.30;;;;;;;;;;5076197;27;21827;-45
2022/01/20 10:18:35;;;;;;;190.70;81.03;;;;;;;;;;5076030;28;20859;-45
2022/01/20 10:21:03;;;;;;;175.70;79.63;;;;;;;;;;5040193;28;20428;-45
2022/01/20 10:23:33;;;;;;;189.27;82.53;;;;;;;;;;5040477;28;20759;-44
2022/01/20 10:26:11;;;;;;;179.37;79.80;;;;;;;;;;5042767;28;20440;-45
2022/01/20 10:28:48;;;;;;;165.07;78.23;;;;;;;;;;5071701;28;20429;-46
2022/01/20 10:31:16;;;;;;;209.63;86.27;;;;;;;;;;5042618;28;20458;-46
2022/01/20 10:33:42;;;;;;;201.47;84.67;;;;;;;;;;5070092;27;20436;-46
2022/01/20 10:36:09;;;;;;;205.57;86.50;;;;;;;;;;5040419;28;20504;-46
2022/01/20 10:38:36;;;;;;;167.63;75.73;;;;;;;;;;5043636;28;20683;-45
2022/01/20 10:41:04;;;;;;;167.27;73.93;;;;;;;;;;5056592;28;20532;-45
2022/01/20 10:43:34;;;;;;;170.60;77.50;;;;;;;;;;5039416;28;20454;-46
2022/01/20 10:46:10;;;;;;;189.67;81.43;;;;;;;;;;5054944;28;20425;-46
2022/01/20 10:48:36;;;;;;;172.57;78.27;;;;;;;;;;5036701;28;21061;-46
2022/01/20 10:51:02;;;;;;;181.47;78.57;;;;;;;;;;5056285;28;20430;-46
2022/01/20 10:53:29;;;;;;;173.13;77.23;;;;;;;;;;5057640;28;20445;-46
2022/01/20 10:56:07;;;;;;;149.37;70.50;;;;;;;;;;5054735;28;20429;-46
2022/01/20 10:58:33;;;;;;;184.10;80.37;;;;;;;;;;5070758;28;20434;-46
2022/01/20 11:01:00;;;;;;;185.67;81.80;;;;;;;;;;5041720;28;20464;-46
2022/01/20 11:03:27;;;;;;;160.30;75.53;;;;;;;;;;5054945;28;20453;-46
2022/01/20 11:05:56;;;;;;;172.60;76.50;;;;;;;;;;5056924;28;20437;-47
2022/01/20 11:08:22;;;;;;;184.83;81.43;;;;;;;;;;5044303;28;21063;-46
2022/01/20 11:10:51;;;;;;;164.63;73.77;;;;;;;;;;5054814;28;20438;-46
2022/01/20 11:13:19;;;;;;;170.27;77.57;;;;;;;;;;5044608;28;20479;-46
2022/01/20 11:15:46;;;;;;;162.03;73.70;;;;;;;;;;5074177;28;20749;-46
2022/01/20 11:18:13;;;;;;;165.80;75.93;;;;;;;;;;5059514;28;20441;-45
2022/01/20 11:20:44;;;;;;;171.70;76.57;;;;;;;;;;5054709;28;20437;-46
2022/01/20 11:23:10;;;;;;;158.40;76.10;;;;;;;;;;5054087;28;20454;-45
2022/01/20 11:25:39;;;;;;;175.30;74.13;;;;;;;;;;5041637;28;20433;-44
2022/01/20 11:28:20;;;;;;;171.83;79.07;;;;;;;;;;5071961;28;21230;-46
2022/01/20 11:30:59;;;;;;;173.93;78.93;;;;;;;;;;5054023;28;20424;-45
2022/01/20 11:33:36;;;;;;;176.33;79.83;;;;;;;;;;5057397;28;20456;-45
2022/01/20 11:36:03;;;;;;;179.83;78.27;;;;;;;;;;5074211;28;20412;-46
2022/01/20 11:38:49;;;;;;;174.17;76.77;;;;;;;;;;5053809;28;20444;-46
2022/01/20 11:41:17;;;;;;;225.13;85.30;;;;;;;;;;5055659;28;20473;-45
2022/01/20 11:43:53;;;;;;;220.70;84.80;;;;;;;;;;5053823;28;21076;-46
2022/01/20 11:46:23;;;;;;;206.20;78.87;;;;;;;;;;5041109;28;20540;-46
2022/01/20 11:48:54;;;;;;;255.17;87.60;;;;;;;;;;5056321;28;20432;-51
2022/01/20 11:51:21;;;;;;;235.57;86.83;;;;;;;;;;5069834;28;20429;-46
2022/01/20 11:53:57;;;;;;;219.10;80.77;;;;;;;;;;5036393;28;20445;-45
2022/01/20 11:56:34;;;;;;;273.67;91.03;;;;;;;;;;5056921;28;20433;-45
2022/01/20 11:59:01;;;;;;;262.13;86.13;;;;;;;;;;5055323;28;20429;-46
2022/01/20 12:01:30;;;;;;;267.70;91.23;;;;;;;;;;5040528;28;20425;-45
2022/01/20 12:03:56;;;;;;;294.13;93.33;;;;;;;;;;5052346;28;20473;-46
2022/01/20 12:06:24;;;;;;;274.60;86.97;;;;;;;;;;5040334;28;21106;-46
2022/01/20 12:08:58;;;;;;;277.83;87.77;;;;;;;;;;5057691;28;21061;-45
2022/01/20 12:11:35;;;;;;;312.83;92.40;;;;;;;;;;5038667;28;20548;-47
2022/01/20 12:14:02;;;;;;;257.43;83.30;;;;;;;;;;5054630;28;20430;-45
2022/01/20 12:16:28;;;;;;;264.77;87.37;;;;;;;;;;5037521;28;20635;-45
2022/01/20 12:18:59;;;;;;;241.73;83.00;;;;;;;;;;5040543;28;20524;-46
2022/01/20 12:21:26;;;;;;;260.10;83.87;;;;;;;;;;5058061;28;20423;-46
2022/01/20 12:23:53;;;;;;;243.87;80.43;;;;;;;;;;5051606;28;20464;-47
2022/01/20 12:26:20;;;;;;;236.07;80.97;;;;;;;;;;5038760;28;20444;-45
2022/01/20 12:28:46;;;;;;;232.20;83.73;;;;;;;;;;5051367;28;20430;-43
2022/01/20 12:31:15;;;;;;;240.23;81.43;;;;;;;;;;5054569;28;20457;-45
2022/01/20 12:33:45;;;;;;;232.37;81.00;;;;;;;;;;5038733;28;20460;-44
2022/01/20 12:36:13;;;;;;;242.40;82.07;;;;;;;;;;5066614;28;20429;-44
2022/01/20 12:38:39;;;;;;;235.60;80.30;;;;;;;;;;5053220;28;20669;-44
2022/01/20 12:41:13;;;;;;;218.70;75.43;;;;;;;;;;5042322;28;21292;-44
2022/01/20 12:43:39;;;;;;;220.67;77.77;;;;;;;;;;5055092;28;20667;-43
2022/01/20 12:46:06;;;;;;;212.80;77.20;;;;;;;;;;5051358;28;20431;-44
2022/01/20 12:48:32;;;;;;;208.87;75.10;;;;;;;;;;5052894;28;20434;-44
2022/01/20 12:51:06;;;;;;;227.87;78.67;;;;;;;;;;5057002;28;20524;-42
2022/01/20 12:53:34;;;;;;;221.57;77.27;;;;;;;;;;5044634;28;20435;-42
2022/01/20 12:56:00;;;;;;;221.57;79.00;;;;;;;;;;5057676;28;20541;-44
2022/01/20 12:58:26;;;;;;;220.97;76.53;;;;;;;;;;5041955;28;20441;-43
2022/01/20 13:01:02;;;;;;;206.43;73.73;;;;;;;;;;5044139;28;20441;-41
2022/01/20 13:03:35;;;;;;;211.40;75.80;;;;;;;;;;5058571;28;21306;-43
2022/01/20 13:06:02;;;;;;;201.50;73.27;;;;;;;;;;5044323;28;21049;-43
2022/01/20 13:08:35;;;;;;;217.73;74.63;;;;;;;;;;5055386;28;21367;-41
2022/01/20 13:11:03;;;;;;;205.80;72.20;;;;;;;;;;5057803;28;20414;-42
2022/01/20 13:13:29;;;;;;;216.40;73.40;;;;;;;;;;5059992;28;20422;-43
2022/01/20 13:15:55;;;;;;;205.60;72.00;;;;;;;;;;5048432;28;20471;-42
2022/01/20 13:18:21;;;;;;;220.27;73.80;;;;;;;;;;5060622;28;20425;-41
2022/01/20 13:20:59;;;;;;;215.63;72.90;;;;;;;;;;5060440;28;20591;-42
2022/01/20 13:26:07;;;;;;;202.97;72.87;;;;;;;;;;5042842;28;20433;-41
2022/01/20 13:28:33;;;;;;;227.87;74.00;;;;;;;;;;5040720;28;20492;-40
2022/01/20 13:31:12;;;;;;;215.60;72.93;;;;;;;;;;5057522;28;21112;-42
2022/01/20 13:33:39;;;;;;;224.03;72.17;;;;;;;;;;5056447;28;20422;-42
2022/01/20 13:36:05;;;;;;;233.83;73.37;;;;;;;;;;5058541;28;20438;-42
2022/01/20 13:38:32;;;;;;;183.33;64.70;;;;;;;;;;5056705;28;21308;-41
2022/01/20 13:41:07;;;;;;;189.63;66.27;;;;;;;;;;5056581;28;20430;-43
2022/01/20 13:46:22;;;;;;;223.77;75.90;;;;;;;;;;5044274;28;20437;-42
2022/01/20 13:48:48;;;;;;;216.03;74.27;;;;;;;;;;5059312;28;20540;-42
2022/01/20 13:51:17;;;;;;;228.17;77.20;;;;;;;;;;5056905;28;20528;-43
2022/01/20 13:53:43;;;;;;;225.80;73.07;;;;;;;;;;5058937;28;21035;-43
2022/01/20 13:56:10;;;;;;;229.70;76.30;;;;;;;;;;5045373;28;21365;-42
2022/01/20 13:58:39;;;;;;;233.90;76.60;;;;;;;;;;5047406;28;20461;-42
2022/01/20 14:01:08;;;;;;;210.57;72.93;;;;;;;;;;5074670;27;20433;-42
2022/01/20 14:03:35;;;;;;;230.13;75.57;;;;;;;;;;5057596;28;20549;-42
2022/01/20 14:06:01;;;;;;;222.93;75.37;;;;;;;;;;5058628;28;20524;-41
2022/01/20 14:08:27;;;;;;;219.50;70.30;;;;;;;;;;5047411;28;21118;-42
2022/01/20 14:10:54;;;;;;;220.57;72.33;;;;;;;;;;5053087;28;20876;-38
2022/01/20 14:13:20;;;;;;;203.77;69.90;;;;;;;;;;5038185;28;20856;-44
2022/01/20 14:15:49;;;;;;;191.10;67.10;;;;;;;;;;5056171;28;21442;-43
2022/01/20 14:18:20;;;;;;;170.03;57.77;;;;;;;;;;5054512;28;21157;-41
2022/01/20 14:20:46;;;;;;;162.50;57.97;;;;;;;;;;5059858;28;20437;-40
2022/01/20 14:23:13;;;;;;;123.73;45.97;;;;;;;;;;5054620;28;20493;-39
2022/01/20 14:25:42;;;;;;;110.43;43.73;;;;;;;;;;5056762;28;20478;-40
2022/01/20 14:28:08;;;;;;;103.57;40.13;;;;;;;;;;5046099;28;20441;-41
2022/01/20 14:30:34;;;;;;;119.70;46.53;;;;;;;;;;5044176;28;21352;-43
2022/01/20 14:33:00;;;;;;;134.50;49.77;;;;;;;;;;5058208;28;20414;-42
2022/01/20 14:35:29;;;;;;;118.60;46.93;;;;;;;;;;5053841;28;21179;-42
2022/01/20 14:37:55;;;;;;;118.27;45.33;;;;;;;;;;5043654;28;20434;-40
2022/01/20 14:40:22;;;;;;;132.57;50.33;;;;;;;;;;5058379;28;20481;-42
2022/01/20 14:42:49;;;;;;;143.37;54.47;;;;;;;;;;5055845;28;20454;-42
2022/01/20 14:45:18;;;;;;;127.33;49.43;;;;;;;;;;5055996;28;20428;-43
2022/01/20 14:47:45;;;;;;;98.30;37.87;;;;;;;;;;5057041;28;20527;-43
2022/01/20 14:50:11;;;;;;;76.13;34.40;;;;;;;;;;5055723;28;20429;-42
2022/01/20 14:52:37;;;;;;;71.90;32.97;;;;;;;;;;5056103;28;20430;-40
2022/01/20 14:55:04;;;;;;;58.17;28.70;;;;;;;;;;5043366;28;20430;-43
2022/01/20 14:57:30;;;;;;;54.83;26.83;;;;;;;;;;5055768;28;20458;-42
2022/01/20 14:59:57;;;;;;;49.77;24.87;;;;;;;;;;5045891;28;20427;-42
2022/01/20 15:02:23;;;;;;;64.33;30.50;;;;;;;;;;5055530;28;20429;-41
2022/01/20 15:04:49;;;;;;;72.37;33.43;;;;;;;;;;5075177;28;20474;-43
2022/01/20 15:07:16;;;;;;;76.67;33.33;;;;;;;;;;5059562;28;20695;-43
2022/01/20 15:09:42;;;;;;;81.47;38.30;;;;;;;;;;5057613;28;20453;-44
2022/01/20 15:12:09;;;;;;;90.03;40.10;;;;;;;;;;5058086;28;20865;-43
2022/01/20 15:14:35;;;;;;;93.33;39.63;;;;;;;;;;5040377;28;20763;-41
2022/01/20 15:17:02;;;;;;;91.57;40.67;;;;;;;;;;5039584;28;20476;-43
2022/01/20 15:19:28;;;;;;;109.73;45.90;;;;;;;;;;5043186;28;20438;-43